createdAt,value
2023-05-15T00:01:56.980Z,18.05
2023-05-15T00:04:24.902Z,19.17
2023-05-15T00:06:53.381Z,15.10
2023-05-15T00:09:21.211Z,17.25
2023-05-15T00:11:48.993Z,16.95
2023-05-15T00:14:16.838Z,17.42
2023-05-15T00:16:46.017Z,19.13
2023-05-15T00:19:14.688Z,17.15
2023-05-15T00:21:42.718Z,14.63
2023-05-15T00:24:10.499Z,18.23
2023-05-15T00:26:39.225Z,18.20
2023-05-15T00:29:07.049Z,14.55
2023-05-15T00:31:34.918Z,16.23
2023-05-15T00:34:04.455Z,26.38
2023-05-15T00:36:33.385Z,15.68
2023-05-15T00:39:04.768Z,14.30
2023-05-15T00:41:36.653Z,22.83
2023-05-15T00:44:04.570Z,19.45
2023-05-15T00:46:33.289Z,16.52
2023-05-15T00:49:13.390Z,16.17
2023-05-15T00:51:42.282Z,18.67
2023-05-15T00:54:11.395Z,19.40
2023-05-15T00:56:40.298Z,20.80
2023-05-15T00:59:09.320Z,19.50
2023-05-15T01:01:37.348Z,18.95
2023-05-15T01:04:06.700Z,20.13
2023-05-15T01:06:34.640Z,19.15
2023-05-15T01:09:04.203Z,20.40
2023-05-15T01:11:36.742Z,18.42
2023-05-15T01:14:06.201Z,26.58
2023-05-15T01:16:34.158Z,17.25
2023-05-15T01:19:02.097Z,24.83
2023-05-15T01:22:03.419Z,16.45
2023-05-15T01:24:51.233Z,19.80
2023-05-15T01:27:28.513Z,17.38
2023-05-15T01:30:04.304Z,16.48
2023-05-15T01:32:39.545Z,17.85
2023-05-15T01:35:20.648Z,16.98
2023-05-15T01:37:52.072Z,14.38
2023-05-15T01:40:23.942Z,15.32
2023-05-15T01:42:57.155Z,21.45
2023-05-15T01:45:25.991Z,23.85
2023-05-15T01:47:55.488Z,15.65
2023-05-15T01:50:24.012Z,19.40
2023-05-15T01:52:54.944Z,24.17
2023-05-15T01:55:24.930Z,18.65
2023-05-15T01:57:55.294Z,19.33
2023-05-15T02:00:24.524Z,16.08
2023-05-15T02:02:53.509Z,18.58
2023-05-15T02:05:22.185Z,17.45
2023-05-15T02:07:51.035Z,18.83
2023-05-15T02:10:19.683Z,16.17
2023-05-15T02:12:48.345Z,18.40
2023-05-15T02:15:18.327Z,20.45
2023-05-15T02:17:46.478Z,19.50
2023-05-15T02:20:14.385Z,15.32
2023-05-15T02:22:42.326Z,20.90
2023-05-15T02:25:10.516Z,20.13
2023-05-15T02:27:47.985Z,20.48
2023-05-15T02:30:25.969Z,21.83
2023-05-15T02:33:02.462Z,15.75
2023-05-15T02:35:39.616Z,15.48
2023-05-15T02:38:12.622Z,20.60
2023-05-15T02:40:41.582Z,24.75
2023-05-15T02:43:11.371Z,17.38
2023-05-15T02:45:42.000Z,16.15
2023-05-15T02:48:10.600Z,17.80
2023-05-15T02:50:38.409Z,17.30
2023-05-15T02:53:09.778Z,18.15
2023-05-15T02:55:39.592Z,15.90
2023-05-15T02:58:07.341Z,17.25
2023-05-15T03:00:35.185Z,15.43
2023-05-15T03:03:04.488Z,21.75
2023-05-15T03:05:32.425Z,18.92
2023-05-15T03:08:01.454Z,24.15
2023-05-15T03:10:29.209Z,17.80
2023-05-15T03:12:59.012Z,18.67
2023-05-15T03:15:27.314Z,16.55
2023-05-15T03:17:55.754Z,15.93
2023-05-15T03:20:24.941Z,20.23
2023-05-15T03:22:52.690Z,17.27
2023-05-15T03:25:21.147Z,17.67
2023-05-15T03:27:49.055Z,17.75
2023-05-15T03:30:16.823Z,19.80
2023-05-15T03:32:44.750Z,16.55
2023-05-15T03:35:12.930Z,19.88
2023-05-15T03:37:42.241Z,18.85
2023-05-15T03:40:10.701Z,17.38
2023-05-15T03:42:39.609Z,16.02
2023-05-15T03:45:09.750Z,20.42
2023-05-15T03:47:37.504Z,13.73
2023-05-15T03:50:05.952Z,14.32
2023-05-15T03:52:34.101Z,14.30
2023-05-15T03:55:03.471Z,15.02
2023-05-15T03:57:32.184Z,16.20
2023-05-15T03:59:59.961Z,16.67
2023-05-15T04:02:28.333Z,15.88
2023-05-15T04:04:56.162Z,16.17
2023-05-15T04:07:23.902Z,13.38
2023-05-15T04:09:51.705Z,17.02
2023-05-15T04:12:20.821Z,12.40
2023-05-15T04:14:48.552Z,17.27
2023-05-15T04:17:16.405Z,15.23
2023-05-15T04:19:45.958Z,12.27
2023-05-15T04:22:13.998Z,10.73
2023-05-15T04:24:47.800Z,11.25
2023-05-15T04:27:16.156Z,22.20
2023-05-15T04:29:45.709Z,14.07
2023-05-15T04:32:13.595Z,13.10
2023-05-15T04:34:42.564Z,17.70
2023-05-15T04:37:10.350Z,11.10
2023-05-15T04:39:38.028Z,10.20
2023-05-15T04:42:06.587Z,11.68
2023-05-15T04:44:34.463Z,12.00
2023-05-15T04:47:03.587Z,12.00
2023-05-15T04:49:31.401Z,14.05
2023-05-15T04:51:59.148Z,13.77
2023-05-15T04:54:26.947Z,12.40
2023-05-15T04:56:55.096Z,14.07
2023-05-15T04:59:25.879Z,15.15
2023-05-15T05:01:57.123Z,12.73
2023-05-15T05:04:26.496Z,12.50
2023-05-15T05:06:54.257Z,11.93
2023-05-15T05:09:22.196Z,14.45
2023-05-15T05:11:49.883Z,14.07
2023-05-15T05:14:17.722Z,15.10
2023-05-15T05:16:46.200Z,10.82
2023-05-15T05:19:14.093Z,12.48
2023-05-15T05:21:43.406Z,13.75
2023-05-15T05:24:11.734Z,13.35
2023-05-15T05:26:39.505Z,20.08
2023-05-15T05:29:07.253Z,11.75
2023-05-15T05:31:35.067Z,13.60
2023-05-15T05:34:02.772Z,20.75
2023-05-15T05:36:30.611Z,19.40
2023-05-15T05:38:59.708Z,15.77
2023-05-15T05:41:27.566Z,15.68
2023-05-15T05:43:55.533Z,18.15
2023-05-15T05:46:23.410Z,16.90
2023-05-15T05:48:51.454Z,13.75
2023-05-15T05:51:19.265Z,13.52
2023-05-15T05:53:47.022Z,12.25
2023-05-15T05:56:16.188Z,14.35
2023-05-15T05:58:44.211Z,18.85
2023-05-15T06:01:12.111Z,15.20
2023-05-15T06:03:40.440Z,17.85
2023-05-15T06:06:08.694Z,17.38
2023-05-15T06:08:40.501Z,11.57
2023-05-15T06:11:08.306Z,16.60
2023-05-15T06:13:40.593Z,16.48
2023-05-15T06:16:08.521Z,12.88
2023-05-15T06:18:36.329Z,13.48
2023-05-15T06:21:04.523Z,14.35
2023-05-15T06:23:32.260Z,14.02
2023-05-15T06:26:01.679Z,10.80
2023-05-15T06:28:29.477Z,11.88
2023-05-15T06:30:58.675Z,8.25
2023-05-15T06:33:26.474Z,13.15
2023-05-15T06:35:54.454Z,9.25
2023-05-15T06:38:22.326Z,11.30
2023-05-15T06:40:50.137Z,22.05
2023-05-15T06:43:17.999Z,15.15
2023-05-15T06:45:46.000Z,13.82
2023-05-15T06:48:15.177Z,14.23
2023-05-15T06:50:43.117Z,13.02
2023-05-15T06:53:12.354Z,8.68
2023-05-15T06:55:42.476Z,12.20
2023-05-15T06:58:10.271Z,9.80
2023-05-15T07:00:38.204Z,10.40
2023-05-15T07:03:06.304Z,11.63
2023-05-15T07:05:35.523Z,14.38
2023-05-15T07:08:03.240Z,14.02
2023-05-15T07:10:32.791Z,8.93
2023-05-15T07:13:00.868Z,17.10
2023-05-15T07:15:28.602Z,9.60
2023-05-15T07:17:56.563Z,14.07
2023-05-15T07:20:27.278Z,16.00
2023-05-15T07:22:58.404Z,13.55
2023-05-15T07:25:27.153Z,9.90
2023-05-15T07:27:55.124Z,11.45
2023-05-15T07:30:23.554Z,10.32
2023-05-15T07:32:51.505Z,12.50
2023-05-15T07:35:19.494Z,10.05
2023-05-15T07:37:47.529Z,9.18
2023-05-15T07:40:16.691Z,13.35
2023-05-15T07:42:45.570Z,14.82
2023-05-15T07:45:13.618Z,13.45
2023-05-15T07:47:45.807Z,11.30
2023-05-15T07:50:13.686Z,11.38
2023-05-15T07:52:41.491Z,13.88
2023-05-15T07:55:09.912Z,16.63
2023-05-15T07:57:39.891Z,13.23
2023-05-15T08:00:11.618Z,13.45
2023-05-15T08:02:39.911Z,10.50
2023-05-15T08:05:08.554Z,9.70
2023-05-15T08:07:39.460Z,11.48
2023-05-15T08:10:10.088Z,12.18
2023-05-15T08:12:46.239Z,7.63
2023-05-15T08:15:14.387Z,10.98
2023-05-15T08:17:42.421Z,15.52
2023-05-15T08:20:11.676Z,6.40
2023-05-15T08:22:39.444Z,7.13
2023-05-15T08:25:08.989Z,5.10
2023-05-15T08:27:36.798Z,6.72
2023-05-15T08:30:07.267Z,8.95
2023-05-15T08:32:35.074Z,11.27
2023-05-15T08:35:02.950Z,9.90
2023-05-15T08:37:30.741Z,7.35
2023-05-15T08:39:58.501Z,7.70
2023-05-15T08:42:34.429Z,9.20
2023-05-15T08:45:02.673Z,10.95
2023-05-15T08:47:36.428Z,5.07
2023-05-15T08:50:08.463Z,8.00
2023-05-15T08:52:36.789Z,10.45
2023-05-15T08:55:05.245Z,7.60
2023-05-15T08:57:34.699Z,9.77
2023-05-15T09:00:06.494Z,9.18
2023-05-15T09:02:37.432Z,8.57
2023-05-15T09:05:06.270Z,5.75
2023-05-15T09:07:34.993Z,5.65
2023-05-15T09:10:04.718Z,7.22
2023-05-15T09:12:34.994Z,5.78
2023-05-15T09:15:14.162Z,9.25
2023-05-15T09:17:43.587Z,5.57
2023-05-15T09:20:27.854Z,6.93
2023-05-15T09:22:56.057Z,8.82
2023-05-15T09:25:38.641Z,7.75
2023-05-15T09:28:10.821Z,11.15
2023-05-15T09:30:39.350Z,6.95
2023-05-15T09:35:39.386Z,6.65
2023-05-15T09:38:10.699Z,8.80
2023-05-15T09:40:39.971Z,7.88
2023-05-15T09:43:07.767Z,5.20
2023-05-15T09:45:35.555Z,4.93
2023-05-15T09:48:06.657Z,5.13
2023-05-15T09:50:37.694Z,3.53
2023-05-15T09:53:06.233Z,5.53
2023-05-15T09:55:35.214Z,5.03
2023-05-15T09:58:07.332Z,10.02
2023-05-15T10:00:35.547Z,4.80
2023-05-15T10:03:04.431Z,9.32
2023-05-15T10:05:43.132Z,5.45
2023-05-15T10:08:14.988Z,7.93
2023-05-15T10:10:43.356Z,7.00
2023-05-15T10:13:12.250Z,8.80
2023-05-15T10:15:41.053Z,6.82
2023-05-15T10:18:09.476Z,6.88
2023-05-15T10:20:38.553Z,10.77
2023-05-15T10:23:07.510Z,6.97
2023-05-15T10:25:42.947Z,9.38
2023-05-15T10:28:19.030Z,13.20
2023-05-15T10:30:47.901Z,8.13
2023-05-15T10:33:16.494Z,11.15
2023-05-15T10:35:44.903Z,10.25
2023-05-15T10:38:13.706Z,6.90
2023-05-15T10:40:43.250Z,9.15
2023-05-15T10:43:12.551Z,6.93
2023-05-15T10:45:40.766Z,6.10
2023-05-15T10:48:12.402Z,5.43
2023-05-15T10:50:40.382Z,9.35
2023-05-15T10:53:10.171Z,7.80
2023-05-15T10:55:38.287Z,8.48
2023-05-15T10:58:11.453Z,6.13
2023-05-15T11:00:43.994Z,8.10
2023-05-15T11:03:15.503Z,12.20
2023-05-15T11:06:08.801Z,10.13
2023-05-15T11:08:37.299Z,11.23
2023-05-15T11:11:05.978Z,9.38
2023-05-15T11:14:18.507Z,8.70
2023-05-15T11:17:05.140Z,7.45
2023-05-15T11:19:55.015Z,7.85
2023-05-15T11:22:28.417Z,8.20
2023-05-15T11:24:59.346Z,8.23
2023-05-15T11:27:30.071Z,9.60
2023-05-15T11:30:12.122Z,9.48
2023-05-15T11:32:51.729Z,11.02
2023-05-15T11:35:21.678Z,10.80
2023-05-15T11:37:53.907Z,8.38
2023-05-15T11:40:24.580Z,5.18
2023-05-15T11:43:04.314Z,11.27
2023-05-15T11:45:33.168Z,8.70
2023-05-15T11:48:04.136Z,7.90
2023-05-15T11:50:33.915Z,8.85
2023-05-15T11:53:06.879Z,5.20
2023-05-15T11:55:36.180Z,8.27
2023-05-15T11:58:05.203Z,8.52
2023-05-15T12:00:33.066Z,12.68
2023-05-15T12:03:03.840Z,13.45
2023-05-15T12:05:32.040Z,13.65
2023-05-15T12:08:00.014Z,15.68
2023-05-15T12:10:28.234Z,4.90
2023-05-15T12:12:56.452Z,6.43
2023-05-15T12:15:24.449Z,8.68
2023-05-15T12:17:52.290Z,11.18
2023-05-15T12:20:23.342Z,6.45
2023-05-15T12:22:51.205Z,5.68
2023-05-15T12:25:18.987Z,7.82
2023-05-15T12:27:46.950Z,9.43
2023-05-15T12:30:15.602Z,9.38
2023-05-15T12:32:43.863Z,12.32
2023-05-15T12:35:12.930Z,10.63
2023-05-15T12:37:42.886Z,13.10
2023-05-15T12:40:12.059Z,7.63
2023-05-15T12:42:41.584Z,9.60
2023-05-15T12:45:16.433Z,8.05
2023-05-15T12:47:46.502Z,9.93
2023-05-15T12:50:16.719Z,6.18
2023-05-15T12:52:51.829Z,4.68
2023-05-15T12:55:23.140Z,9.20
2023-05-15T12:57:51.205Z,7.05
2023-05-15T13:00:21.470Z,5.53
2023-05-15T13:02:51.684Z,8.88
2023-05-15T13:05:19.779Z,8.32
2023-05-15T13:07:48.995Z,5.03
2023-05-15T13:10:16.964Z,9.13
2023-05-15T13:12:47.332Z,12.05
2023-05-15T13:15:27.476Z,6.40
2023-05-15T13:18:00.019Z,9.90
2023-05-15T13:20:29.061Z,6.45
2023-05-15T13:22:58.254Z,5.38
2023-05-15T13:25:26.162Z,10.05
2023-05-15T13:27:54.397Z,8.30
2023-05-15T13:30:22.252Z,13.07
2023-05-15T13:32:50.232Z,7.40
2023-05-15T13:35:18.018Z,9.65
2023-05-15T13:37:45.890Z,8.60
2023-05-15T13:40:15.517Z,5.22
2023-05-15T13:42:44.616Z,8.07
2023-05-15T13:45:13.963Z,8.32
2023-05-15T13:47:42.249Z,8.70
2023-05-15T13:50:11.549Z,6.57
2023-05-15T13:52:40.378Z,9.82
2023-05-15T13:55:10.633Z,14.25
2023-05-15T13:57:40.889Z,7.68
2023-05-15T14:00:12.250Z,8.93
2023-05-15T14:02:41.187Z,10.38
2023-05-15T14:05:09.985Z,7.65
2023-05-15T14:07:37.977Z,6.25
2023-05-15T14:10:07.108Z,9.40
2023-05-15T14:12:35.630Z,8.70
2023-05-15T14:15:05.278Z,5.82
2023-05-15T14:17:33.277Z,8.60
2023-05-15T14:20:01.336Z,10.48
2023-05-15T14:22:29.098Z,10.50
2023-05-15T14:24:56.891Z,9.55
2023-05-15T14:27:24.707Z,9.18
2023-05-15T14:29:52.541Z,7.57
2023-05-15T14:32:21.747Z,7.68
2023-05-15T14:34:49.604Z,10.30
2023-05-15T14:37:17.631Z,6.03
2023-05-15T14:39:45.437Z,4.75
2023-05-15T14:42:13.224Z,4.80
2023-05-15T14:44:41.012Z,10.70
2023-05-15T14:47:09.972Z,7.03
2023-05-15T14:49:39.176Z,6.90
2023-05-15T14:52:09.862Z,8.15
2023-05-15T14:54:40.366Z,6.30
2023-05-15T14:57:08.442Z,9.60
2023-05-15T14:59:36.543Z,8.82
2023-05-15T15:02:04.504Z,6.07
2023-05-15T15:04:34.437Z,6.15
2023-05-15T15:07:06.114Z,5.47
2023-05-15T15:09:33.881Z,9.70
2023-05-15T15:12:01.668Z,7.88
2023-05-15T15:14:30.413Z,7.47
2023-05-15T15:16:58.167Z,9.35
2023-05-15T15:19:26.047Z,11.10
2023-05-15T15:21:53.930Z,5.85
2023-05-15T15:24:24.619Z,6.63
2023-05-15T15:26:52.354Z,6.32
2023-05-15T15:29:20.129Z,7.70
2023-05-15T15:31:47.849Z,7.35
2023-05-15T15:34:15.922Z,11.20
2023-05-15T15:36:43.768Z,9.52
2023-05-15T15:39:13.078Z,10.13
2023-05-15T15:41:42.340Z,13.73
2023-05-15T15:44:10.064Z,7.45
2023-05-15T15:46:37.920Z,9.10
2023-05-15T15:49:06.821Z,14.40
2023-05-15T15:51:34.850Z,6.00
2023-05-15T15:54:02.790Z,7.25
2023-05-15T15:56:30.673Z,11.25
2023-05-15T15:58:59.816Z,11.05
2023-05-15T16:01:28.374Z,7.15
2023-05-15T16:03:56.561Z,16.33
2023-05-15T16:06:24.419Z,6.72
2023-05-15T16:08:52.475Z,10.98
2023-05-15T16:11:21.466Z,15.13
2023-05-15T16:13:49.232Z,12.00
2023-05-15T16:16:18.537Z,13.02
2023-05-15T16:18:46.535Z,12.68
2023-05-15T16:21:14.673Z,7.97
2023-05-15T16:23:42.695Z,11.75
2023-05-15T16:26:11.278Z,9.55
2023-05-15T16:28:39.364Z,13.80
2023-05-15T16:31:07.384Z,9.23
2023-05-15T16:33:36.668Z,18.88
2023-05-15T16:36:05.216Z,11.85
2023-05-15T16:38:33.515Z,6.35
2023-05-15T16:41:02.208Z,12.55
2023-05-15T16:43:29.972Z,10.50
2023-05-15T16:45:59.066Z,9.15
2023-05-15T16:48:27.946Z,13.25
2023-05-15T16:50:57.380Z,13.68
2023-05-15T16:53:25.221Z,15.23
2023-05-15T16:55:53.993Z,13.75
2023-05-15T16:58:21.925Z,7.20
2023-05-15T17:00:50.262Z,6.68
2023-05-15T17:03:19.082Z,9.95
2023-05-15T17:05:47.414Z,7.88
2023-05-15T17:08:16.701Z,11.75
2023-05-15T17:10:44.676Z,8.80
2023-05-15T17:13:12.500Z,6.07
2023-05-15T17:15:40.313Z,12.25
2023-05-15T17:18:08.386Z,12.35
2023-05-15T17:20:36.282Z,16.00
2023-05-15T17:23:04.064Z,10.75
2023-05-15T17:25:33.287Z,10.80
2023-05-15T17:28:01.321Z,7.28
2023-05-15T17:30:29.314Z,10.35
2023-05-15T17:32:57.239Z,9.40
2023-05-15T17:35:25.339Z,14.40
2023-05-15T17:37:53.289Z,7.50
2023-05-15T17:40:21.102Z,14.98
2023-05-15T17:42:50.243Z,15.20
2023-05-15T17:45:18.273Z,8.98
2023-05-15T17:47:46.050Z,10.13
2023-05-15T17:50:13.960Z,13.52
2023-05-15T17:52:41.749Z,10.65
2023-05-15T17:55:10.221Z,6.07
2023-05-15T17:57:37.979Z,8.20
2023-05-15T18:00:08.791Z,7.88
2023-05-15T18:02:36.611Z,12.57
2023-05-15T18:05:04.554Z,7.30
2023-05-15T18:07:32.394Z,5.78
2023-05-15T18:10:00.328Z,6.70
2023-05-15T18:12:28.107Z,11.52
2023-05-15T18:14:55.848Z,10.60
2023-05-15T18:17:25.350Z,9.63
2023-05-15T18:19:53.156Z,7.65
2023-05-15T18:22:21.144Z,12.00
2023-05-15T18:24:49.017Z,11.93
2023-05-15T18:27:16.855Z,8.57
2023-05-15T18:29:45.743Z,8.40
2023-05-15T18:32:13.624Z,8.30
2023-05-15T18:34:44.586Z,10.93
2023-05-15T18:37:14.738Z,6.78
2023-05-15T18:39:44.228Z,10.63
2023-05-15T18:42:11.962Z,10.85
2023-05-15T18:44:39.990Z,15.00
2023-05-15T18:47:08.142Z,11.23
2023-05-15T18:49:36.122Z,18.58
2023-05-15T18:52:05.621Z,11.68
2023-05-15T18:54:33.596Z,12.10
2023-05-15T18:57:01.487Z,12.75
2023-05-15T18:59:30.054Z,9.88
2023-05-15T19:01:58.122Z,8.18
2023-05-15T19:04:26.125Z,10.07
2023-05-15T19:06:53.835Z,16.33
2023-05-15T19:09:23.004Z,9.18
2023-05-15T19:11:52.449Z,12.65
2023-05-15T19:14:20.294Z,9.77
2023-05-15T19:16:48.175Z,9.70
2023-05-15T19:19:16.117Z,13.35
2023-05-15T19:21:43.886Z,11.25
2023-05-15T19:24:11.806Z,10.57
2023-05-15T19:26:41.026Z,10.48
2023-05-15T19:29:08.735Z,11.18
2023-05-15T19:31:37.394Z,10.15
2023-05-15T19:34:05.888Z,11.13
2023-05-15T19:36:37.420Z,12.95
2023-05-15T19:39:05.612Z,11.30
2023-05-15T19:41:33.364Z,18.20
2023-05-15T19:44:02.667Z,13.30
2023-05-15T19:46:32.147Z,11.20
2023-05-15T19:48:59.942Z,8.52
2023-05-15T19:51:27.888Z,12.75
2023-05-15T19:53:56.681Z,13.95
2023-05-15T19:56:25.344Z,11.13
2023-05-15T19:58:53.204Z,9.73
2023-05-15T20:01:22.333Z,13.45
2023-05-15T20:03:50.315Z,10.98
2023-05-15T20:06:18.112Z,9.50
2023-05-15T20:08:46.021Z,15.43
2023-05-15T20:11:14.371Z,12.93
2023-05-15T20:13:42.404Z,15.23
2023-05-15T20:16:12.828Z,10.80
2023-05-15T20:18:42.097Z,15.00
2023-05-15T20:21:09.899Z,12.77
2023-05-15T20:23:37.690Z,10.15
2023-05-15T20:26:05.576Z,13.18
2023-05-15T20:28:33.318Z,11.77
2023-05-15T20:31:01.617Z,13.98
2023-05-15T20:33:29.497Z,13.60
2023-05-15T20:36:00.246Z,21.48
2023-05-15T20:38:28.372Z,16.23
2023-05-15T20:40:57.627Z,13.60
2023-05-15T20:43:25.445Z,14.23
2023-05-15T20:45:53.488Z,10.98
2023-05-15T20:48:21.388Z,13.38
2023-05-15T20:50:49.168Z,13.85
2023-05-15T20:53:18.267Z,11.98
2023-05-15T20:55:46.645Z,12.65
2023-05-15T20:58:14.531Z,12.85
2023-05-15T21:00:42.281Z,11.15
2023-05-15T21:03:11.034Z,17.38
2023-05-15T21:05:38.928Z,13.95
2023-05-15T21:08:06.814Z,15.48
2023-05-15T21:10:35.976Z,11.23
2023-05-15T21:13:03.896Z,16.55
2023-05-15T21:15:31.601Z,14.18
2023-05-15T21:17:59.423Z,12.95
2023-05-15T21:20:27.613Z,13.18
2023-05-15T21:22:55.568Z,16.55
2023-05-15T21:25:23.770Z,12.57
2023-05-15T21:27:52.897Z,14.75
2023-05-15T21:30:20.878Z,18.83
2023-05-15T21:32:48.684Z,12.73
2023-05-15T21:35:16.720Z,13.00
2023-05-15T21:37:44.498Z,20.40
2023-05-15T21:40:13.875Z,14.65
2023-05-15T21:42:42.047Z,12.63
2023-05-15T21:45:11.762Z,19.35
2023-05-15T21:47:39.743Z,14.70
2023-05-15T21:50:08.267Z,15.38
2023-05-15T21:52:36.072Z,15.35
2023-05-15T21:55:04.279Z,14.15
2023-05-15T21:57:32.033Z,17.90
2023-05-15T21:59:59.880Z,16.13
2023-05-15T22:02:29.304Z,14.30
2023-05-15T22:04:57.296Z,14.52
2023-05-15T22:07:25.095Z,17.60
2023-05-15T22:09:53.188Z,15.35
2023-05-15T22:12:21.087Z,17.30
2023-05-15T22:14:58.565Z,18.75
2023-05-15T22:17:29.145Z,19.35
2023-05-15T22:20:06.745Z,17.38
2023-05-15T22:22:34.836Z,18.30
2023-05-15T22:25:02.729Z,14.40
2023-05-15T22:27:30.564Z,19.27
2023-05-15T22:32:43.998Z,18.15
2023-05-15T22:35:13.898Z,16.75
2023-05-15T22:37:42.206Z,19.98
2023-05-15T22:40:11.883Z,17.67
2023-05-15T22:42:39.607Z,16.08
2023-05-15T22:45:08.572Z,15.95
2023-05-15T22:47:36.380Z,16.55
2023-05-15T22:50:04.543Z,16.92
2023-05-15T22:52:33.642Z,21.35
2023-05-15T22:55:01.554Z,17.40
2023-05-15T22:57:29.333Z,19.38
2023-05-15T22:59:57.205Z,17.67
2023-05-15T23:02:25.095Z,18.67
2023-05-15T23:04:52.885Z,17.38
2023-05-15T23:07:20.611Z,15.35
2023-05-15T23:09:49.931Z,19.38
2023-05-15T23:12:17.694Z,20.92
2023-05-15T23:14:45.436Z,19.13
2023-05-15T23:17:13.559Z,20.45
2023-05-15T23:19:41.412Z,19.20
2023-05-15T23:22:09.215Z,19.35
2023-05-15T23:24:37.057Z,21.35
2023-05-15T23:27:06.724Z,18.45
2023-05-15T23:29:34.707Z,23.05
2023-05-15T23:32:02.545Z,15.45
2023-05-15T23:34:30.700Z,20.83
2023-05-15T23:36:58.472Z,19.73
2023-05-15T23:39:26.567Z,19.52
2023-05-15T23:41:54.357Z,22.98
2023-05-15T23:44:23.507Z,21.48
2023-05-15T23:46:51.398Z,19.90
2023-05-15T23:49:19.557Z,20.92
2023-05-15T23:51:47.361Z,19.58
2023-05-15T23:54:15.237Z,20.92
2023-05-15T23:56:43.056Z,17.92
2023-05-15T23:59:11.016Z,22.17
